sensor_id;sensor_type;location;lat;lon;timestamp;pressure;altitude;pressure_sealevel;temperature;humidity
11001;BME280;5553;48.506;8.870;2023-02-28T00:01:36;96884.28;;;-3.51;82.08
11001;BME280;5553;48.506;8.870;2023-02-28T00:04:07;96885.34;;;-3.41;82.03
11001;BME280;5553;48.506;8.870;2023-02-28T00:06:36;96887.38;;;-3.46;82.13
11001;BME280;5553;48.506;8.870;2023-02-28T00:09:04;96889.75;;;-3.43;82.27
11001;BME280;5553;48.506;8.870;2023-02-28T00:11:32;96883.16;;;-3.47;82.16
11001;BME280;5553;48.506;8.870;2023-02-28T00:14:03;96887.38;;;-3.46;82.34
11001;BME280;5553;48.506;8.870;2023-02-28T00:16:31;96888.31;;;-3.47;82.49
11001;BME280;5553;48.506;8.870;2023-02-28T00:18:59;96889.94;;;-3.46;82.48
11001;BME280;5553;48.506;8.870;2023-02-28T00:21:30;96891.44;;;-3.42;82.74
11001;BME280;5553;48.506;8.870;2023-02-28T00:23:59;96887.19;;;-3.43;82.88
11001;BME280;5553;48.506;8.870;2023-02-28T00:26:27;96891.81;;;-3.48;82.97
11001;BME280;5553;48.506;8.870;2023-02-28T00:28:55;96895.22;;;-3.47;83.14
11001;BME280;5553;48.506;8.870;2023-02-28T00:31:23;96891.81;;;-3.48;83.35
11001;BME280;5553;48.506;8.870;2023-02-28T00:33:51;96885.72;;;-3.47;83.47
11001;BME280;5553;48.506;8.870;2023-02-28T00:36:20;96886.47;;;-3.45;83.14
11001;BME280;5553;48.506;8.870;2023-02-28T00:38:51;96879.75;;;-3.47;83.24
11001;BME280;5553;48.506;8.870;2023-02-28T00:41:19;96887.38;;;-3.46;83.39
11001;BME280;5553;48.506;8.870;2023-02-28T00:43:47;96880.50;;;-3.60;83.51
11001;BME280;5553;48.506;8.870;2023-02-28T00:46:15;96884.13;;;-3.62;84.02
11001;BME280;5553;48.506;8.870;2023-02-28T00:48:44;96890.72;;;-3.58;84.29
11001;BME280;5553;48.506;8.870;2023-02-28T00:51:12;96894.88;;;-3.55;84.53
11001;BME280;5553;48.506;8.870;2023-02-28T00:53:40;96886.59;;;-3.61;84.53
11001;BME280;5553;48.506;8.870;2023-02-28T00:56:11;96882.72;;;-3.68;84.65
11001;BME280;5553;48.506;8.870;2023-02-28T00:58:39;96891.22;;;-3.66;85.17
11001;BME280;5553;48.506;8.870;2023-02-28T01:01:07;96890.34;;;-3.66;85.46
11001;BME280;5553;48.506;8.870;2023-02-28T01:03:36;96888.91;;;-3.70;85.46
11001;BME280;5553;48.506;8.870;2023-02-28T01:06:04;96882.28;;;-3.74;85.68
11001;BME280;5553;48.506;8.870;2023-02-28T01:08:33;96892.41;;;-3.71;86.06
11001;BME280;5553;48.506;8.870;2023-02-28T01:11:07;96889.25;;;-3.76;86.05
11001;BME280;5553;48.506;8.870;2023-02-28T01:13:39;96888.63;;;-3.80;86.29
11001;BME280;5553;48.506;8.870;2023-02-28T01:16:07;96887.16;;;-3.84;86.54
11001;BME280;5553;48.506;8.870;2023-02-28T01:18:36;96889.44;;;-3.79;86.84
11001;BME280;5553;48.506;8.870;2023-02-28T01:21:05;96887.28;;;-3.86;86.68
11001;BME280;5553;48.506;8.870;2023-02-28T01:23:34;96884.88;;;-3.89;87.27
11001;BME280;5553;48.506;8.870;2023-02-28T01:26:05;96885.06;;;-3.92;87.25
11001;BME280;5553;48.506;8.870;2023-02-28T01:28:34;96893.88;;;-3.82;87.57
11001;BME280;5553;48.506;8.870;2023-02-28T01:31:06;96885.50;;;-3.85;87.65
11001;BME280;5553;48.506;8.870;2023-02-28T01:33:34;96883.41;;;-3.93;87.91
11001;BME280;5553;48.506;8.870;2023-02-28T01:36:05;96883.41;;;-3.93;87.89
11001;BME280;5553;48.506;8.870;2023-02-28T01:38:34;96878.44;;;-3.96;88.19
11001;BME280;5553;48.506;8.870;2023-02-28T01:41:03;96886.81;;;-3.92;88.25
11001;BME280;5553;48.506;8.870;2023-02-28T01:43:39;96879.16;;;-3.94;88.18
11001;BME280;5553;48.506;8.870;2023-02-28T01:46:22;96878.44;;;-3.96;88.41
11001;BME280;5553;48.506;8.870;2023-02-28T01:48:52;96868.19;;;-3.97;88.69
11001;BME280;5553;48.506;8.870;2023-02-28T01:51:24;96876.56;;;-3.94;88.70
11001;BME280;5553;48.506;8.870;2023-02-28T01:53:58;96875.13;;;-3.98;88.97
11001;BME280;5553;48.506;8.870;2023-02-28T01:56:30;96875.41;;;-4.02;89.09
11001;BME280;5553;48.506;8.870;2023-02-28T01:59:02;96874.00;;;-3.94;89.37
11001;BME280;5553;48.506;8.870;2023-02-28T02:01:33;96872.91;;;-4.04;89.67
11001;BME280;5553;48.506;8.870;2023-02-28T02:04:02;96875.28;;;-4.01;89.71
11001;BME280;5553;48.506;8.870;2023-02-28T02:06:36;96874.75;;;-4.06;89.85
11001;BME280;5553;48.506;8.870;2023-02-28T02:09:05;96876.50;;;-4.07;90.05
11001;BME280;5553;48.506;8.870;2023-02-28T02:11:34;96871.34;;;-4.07;90.22
11001;BME280;5553;48.506;8.870;2023-02-28T02:14:14;96878.81;;;-4.02;90.64
11001;BME280;5553;48.506;8.870;2023-02-28T02:17:00;96868.03;;;-4.09;90.74
11001;BME280;5553;48.506;8.870;2023-02-28T02:20:04;96866.09;;;-4.19;91.34
11001;BME280;5553;48.506;8.870;2023-02-28T02:23:02;96854.16;;;-4.20;91.72
11001;BME280;5553;48.506;8.870;2023-02-28T02:25:40;96863.78;;;-4.24;92.08
11001;BME280;5553;48.506;8.870;2023-02-28T02:28:39;96868.94;;;-4.24;92.52
11001;BME280;5553;48.506;8.870;2023-02-28T02:31:58;96878.69;;;-4.29;93.33
11001;BME280;5553;48.506;8.870;2023-02-28T02:34:51;96873.66;;;-4.31;93.68
11001;BME280;5553;48.506;8.870;2023-02-28T02:37:31;96871.44;;;-4.37;94.35
11001;BME280;5553;48.506;8.870;2023-02-28T02:40:11;96877.59;;;-4.39;94.90
11001;BME280;5553;48.506;8.870;2023-02-28T02:42:45;96880.16;;;-4.39;95.36
11001;BME280;5553;48.506;8.870;2023-02-28T02:45:20;96881.91;;;-4.40;95.48
11001;BME280;5553;48.506;8.870;2023-02-28T02:47:51;96885.69;;;-4.31;96.08
11001;BME280;5553;48.506;8.870;2023-02-28T02:50:25;96876.13;;;-4.43;96.33
11001;BME280;5553;48.506;8.870;2023-02-28T02:52:57;96877.22;;;-4.33;96.97
11001;BME280;5553;48.506;8.870;2023-02-28T02:55:27;96887.88;;;-4.39;97.20
11001;BME280;5553;48.506;8.870;2023-02-28T02:57:59;96889.66;;;-4.40;97.42
11001;BME280;5553;48.506;8.870;2023-02-28T03:00:33;96886.50;;;-4.45;97.93
11001;BME280;5553;48.506;8.870;2023-02-28T03:03:03;96888.00;;;-4.41;98.28
11001;BME280;5553;48.506;8.870;2023-02-28T03:05:38;96894.63;;;-4.37;98.58
11001;BME280;5553;48.506;8.870;2023-02-28T03:08:09;96890.66;;;-4.42;98.94
11001;BME280;5553;48.506;8.870;2023-02-28T03:10:39;96894.63;;;-4.37;99.16
11001;BME280;5553;48.506;8.870;2023-02-28T03:16:08;96895.91;;;-4.30;99.57
11001;BME280;5553;48.506;8.870;2023-02-28T03:18:44;96902.06;;;-4.32;99.63
11001;BME280;5553;48.506;8.870;2023-02-28T03:21:23;96888.91;;;-4.28;99.90
11001;BME280;5553;48.506;8.870;2023-02-28T03:24:01;96889.66;;;-4.11;100.00
11001;BME280;5553;48.506;8.870;2023-02-28T03:26:33;96894.28;;;-4.16;100.00
11001;BME280;5553;48.506;8.870;2023-02-28T03:29:09;96888.19;;;-4.15;100.00
11001;BME280;5553;48.506;8.870;2023-02-28T03:31:45;96887.44;;;-4.17;100.00
11001;BME280;5553;48.506;8.870;2023-02-28T03:34:20;96889.84;;;-4.14;100.00
11001;BME280;5553;48.506;8.870;2023-02-28T03:36:55;96884.84;;;-4.17;100.00
11001;BME280;5553;48.506;8.870;2023-02-28T03:39:28;96882.09;;;-4.14;100.00
11001;BME280;5553;48.506;8.870;2023-02-28T03:42:02;96884.50;;;-4.11;100.00
11001;BME280;5553;48.506;8.870;2023-02-28T03:44:37;96887.06;;;-4.11;100.00
11001;BME280;5553;48.506;8.870;2023-02-28T03:47:10;96887.34;;;-4.01;100.00
11001;BME280;5553;48.506;8.870;2023-02-28T03:49:42;96887.19;;;-4.13;100.00
11001;BME280;5553;48.506;8.870;2023-02-28T03:52:17;96897.78;;;-4.03;100.00
11001;BME280;5553;48.506;8.870;2023-02-28T03:54:52;96891.34;;;-4.10;100.00
11001;BME280;5553;48.506;8.870;2023-02-28T03:57:27;96889.47;;;-4.08;100.00
11001;BME280;5553;48.506;8.870;2023-02-28T04:00:00;96892.16;;;-4.10;100.00
11001;BME280;5553;48.506;8.870;2023-02-28T04:02:32;96899.41;;;-4.02;100.00
11001;BME280;5553;48.506;8.870;2023-02-28T04:05:00;96892.81;;;-4.06;100.00
11001;BME280;5553;48.506;8.870;2023-02-28T04:07:32;96888.00;;;-4.12;100.00
11001;BME280;5553;48.506;8.870;2023-02-28T04:10:00;96899.59;;;-4.05;100.00
11001;BME280;5553;48.506;8.870;2023-02-28T04:12:29;96901.25;;;-4.04;100.00
11001;BME280;5553;48.506;8.870;2023-02-28T04:14:57;96894.09;;;-3.99;100.00
11001;BME280;5553;48.506;8.870;2023-02-28T04:17:25;96891.13;;;-4.07;100.00
11001;BME280;5553;48.506;8.870;2023-02-28T04:19:54;96889.28;;;-4.05;100.00
11001;BME280;5553;48.506;8.870;2023-02-28T04:22:23;96896.50;;;-4.10;100.00
11001;BME280;5553;48.506;8.870;2023-02-28T04:24:54;96901.81;;;-3.99;100.00
11001;BME280;5553;48.506;8.870;2023-02-28T04:27:23;96884.31;;;-4.08;100.00
11001;BME280;5553;48.506;8.870;2023-02-28T04:29:51;96893.69;;;-4.07;100.00
11001;BME280;5553;48.506;8.870;2023-02-28T04:32:19;96892.81;;;-4.06;100.00
11001;BME280;5553;48.506;8.870;2023-02-28T04:34:48;96895.56;;;-4.09;100.00
11001;BME280;5553;48.506;8.870;2023-02-28T04:37:16;96893.34;;;-4.01;100.00
11001;BME280;5553;48.506;8.870;2023-02-28T04:39:44;96907.06;;;-4.00;100.00
11001;BME280;5553;48.506;8.870;2023-02-28T04:42:15;96893.16;;;-4.12;100.00
11001;BME280;5553;48.506;8.870;2023-02-28T04:44:44;96897.66;;;-4.01;100.00
11001;BME280;5553;48.506;8.870;2023-02-28T04:47:12;96898.50;;;-4.01;100.00
11001;BME280;5553;48.506;8.870;2023-02-28T04:49:40;96906.41;;;-4.04;100.00
11001;BME280;5553;48.506;8.870;2023-02-28T04:52:09;96908.09;;;-4.03;100.00
11001;BME280;5553;48.506;8.870;2023-02-28T04:54:38;96904.66;;;-4.03;100.00
11001;BME280;5553;48.506;8.870;2023-02-28T04:57:06;96905.59;;;-4.05;100.00
11001;BME280;5553;48.506;8.870;2023-02-28T04:59:37;96914.25;;;-4.06;100.00
11001;BME280;5553;48.506;8.870;2023-02-28T05:02:06;96916.00;;;-4.06;100.00
11001;BME280;5553;48.506;8.870;2023-02-28T05:04:34;96915.25;;;-4.08;100.00
11001;BME280;5553;48.506;8.870;2023-02-28T05:07:03;96925.28;;;-4.03;100.00
11001;BME280;5553;48.506;8.870;2023-02-28T05:09:31;96927.22;;;-4.07;100.00
11001;BME280;5553;48.506;8.870;2023-02-28T05:12:00;96924.75;;;-4.09;100.00
11001;BME280;5553;48.506;8.870;2023-02-28T05:14:29;96929.88;;;-4.09;100.00
11001;BME280;5553;48.506;8.870;2023-02-28T05:17:00;96928.72;;;-4.03;100.00
11001;BME280;5553;48.506;8.870;2023-02-28T05:19:28;96933.47;;;-4.11;100.00
11001;BME280;5553;48.506;8.870;2023-02-28T05:21:56;96926.50;;;-4.09;100.00
11001;BME280;5553;48.506;8.870;2023-02-28T05:24:25;96941.31;;;-3.98;100.00
11001;BME280;5553;48.506;8.870;2023-02-28T05:26:54;96939.91;;;-4.04;100.00
11001;BME280;5553;48.506;8.870;2023-02-28T05:29:23;96936.06;;;-4.11;100.00
11001;BME280;5553;48.506;8.870;2023-02-28T05:31:51;96942.72;;;-3.93;100.00
11001;BME280;5553;48.506;8.870;2023-02-28T05:34:22;96934.03;;;-4.06;100.00
11001;BME280;5553;48.506;8.870;2023-02-28T05:36:51;96939.84;;;-4.02;100.00
11001;BME280;5553;48.506;8.870;2023-02-28T05:39:19;96930.19;;;-3.99;100.00
11001;BME280;5553;48.506;8.870;2023-02-28T05:41:47;96938.16;;;-4.03;100.00
11001;BME280;5553;48.506;8.870;2023-02-28T05:44:16;96930.19;;;-3.99;100.00
11001;BME280;5553;48.506;8.870;2023-02-28T05:46:44;96936.34;;;-4.01;100.00
11001;BME280;5553;48.506;8.870;2023-02-28T05:49:12;96937.28;;;-4.02;100.00
11001;BME280;5553;48.506;8.870;2023-02-28T05:51:43;96941.03;;;-4.08;100.00
11001;BME280;5553;48.506;8.870;2023-02-28T05:54:12;96943.72;;;-4.10;100.00
11001;BME280;5553;48.506;8.870;2023-02-28T05:56:40;96934.22;;;-4.09;100.00
11001;BME280;5553;48.506;8.870;2023-02-28T05:59:11;96947.41;;;-3.99;100.00
11001;BME280;5553;48.506;8.870;2023-02-28T06:01:41;96940.56;;;-4.00;100.00
11001;BME280;5553;48.506;8.870;2023-02-28T06:04:14;96939.44;;;-4.11;100.00
11001;BME280;5553;48.506;8.870;2023-02-28T06:06:47;96946.75;;;-4.03;100.00
11001;BME280;5553;48.506;8.870;2023-02-28T06:09:17;96952.63;;;-4.01;100.00
11001;BME280;5553;48.506;8.870;2023-02-28T06:11:45;96960.66;;;-3.91;100.00
11001;BME280;5553;48.506;8.870;2023-02-28T06:14:15;96961.84;;;-3.97;100.00
11001;BME280;5553;48.506;8.870;2023-02-28T06:16:44;96970.13;;;-3.92;100.00
11001;BME280;5553;48.506;8.870;2023-02-28T06:19:13;96967.09;;;-3.98;100.00
11001;BME280;5553;48.506;8.870;2023-02-28T06:21:41;96966.81;;;-3.94;100.00
11001;BME280;5553;48.506;8.870;2023-02-28T06:24:12;96966.63;;;-4.05;100.00
11001;BME280;5553;48.506;8.870;2023-02-28T06:26:40;96963.88;;;-4.02;100.00
11001;BME280;5553;48.506;8.870;2023-02-28T06:29:08;96966.00;;;-3.94;100.00
11001;BME280;5553;48.506;8.870;2023-02-28T06:31:37;96970.22;;;-3.93;100.00
11001;BME280;5553;48.506;8.870;2023-02-28T06:34:06;96962.75;;;-3.98;100.00
11001;BME280;5553;48.506;8.870;2023-02-28T06:36:36;96978.53;;;-3.88;100.00
11001;BME280;5553;48.506;8.870;2023-02-28T06:39:05;96972.53;;;-3.89;100.00
11001;BME280;5553;48.506;8.870;2023-02-28T06:41:36;96970.44;;;-3.96;100.00
11001;BME280;5553;48.506;8.870;2023-02-28T06:44:10;96977.59;;;-3.87;100.00
11001;BME280;5553;48.506;8.870;2023-02-28T06:46:39;96982.03;;;-3.89;100.00
11001;BME280;5553;48.506;8.870;2023-02-28T06:49:09;96980.47;;;-3.77;100.00
11001;BME280;5553;48.506;8.870;2023-02-28T06:51:39;96977.34;;;-3.83;100.00
11001;BME280;5553;48.506;8.870;2023-02-28T06:54:10;96978.81;;;-3.78;100.00
11001;BME280;5553;48.506;8.870;2023-02-28T06:56:42;96978.44;;;-3.72;100.00
11001;BME280;5553;48.506;8.870;2023-02-28T06:59:10;96985.06;;;-3.68;100.00
11001;BME280;5553;48.506;8.870;2023-02-28T07:01:38;96986.53;;;-3.64;100.00
11001;BME280;5553;48.506;8.870;2023-02-28T07:04:07;96977.97;;;-3.65;100.00
11001;BME280;5553;48.506;8.870;2023-02-28T07:06:35;96977.88;;;-3.63;100.00
11001;BME280;5553;48.506;8.870;2023-02-28T07:09:03;96975.47;;;-3.66;100.00
11001;BME280;5553;48.506;8.870;2023-02-28T07:11:32;96982.03;;;-3.61;100.00
11001;BME280;5553;48.506;8.870;2023-02-28T07:14:03;96982.59;;;-3.55;100.00
11001;BME280;5553;48.506;8.870;2023-02-28T07:16:31;96983.25;;;-3.52;100.00
11001;BME280;5553;48.506;8.870;2023-02-28T07:18:59;96982.78;;;-3.59;100.00
11001;BME280;5553;48.506;8.870;2023-02-28T07:21:28;96978.25;;;-3.55;100.00
11001;BME280;5553;48.506;8.870;2023-02-28T07:23:56;96983.78;;;-3.47;100.00
11001;BME280;5553;48.506;8.870;2023-02-28T07:26:24;96982.94;;;-3.47;100.00
11001;BME280;5553;48.506;8.870;2023-02-28T07:28:53;96980.19;;;-3.44;100.00
11001;BME280;5553;48.506;8.870;2023-02-28T07:31:24;96975.50;;;-3.52;100.00
11001;BME280;5553;48.506;8.870;2023-02-28T07:33:52;96971.81;;;-3.48;100.00
11001;BME280;5553;48.506;8.870;2023-02-28T07:36:21;96983.03;;;-3.49;100.00
11001;BME280;5553;48.506;8.870;2023-02-28T07:38:50;96978.88;;;-3.37;100.00
11001;BME280;5553;48.506;8.870;2023-02-28T07:41:20;96988.56;;;-3.41;100.00
11001;BME280;5553;48.506;8.870;2023-02-28T07:43:53;96988.91;;;-3.33;100.00
11001;BME280;5553;48.506;8.870;2023-02-28T07:46:26;96990.03;;;-3.37;100.00
11001;BME280;5553;48.506;8.870;2023-02-28T07:49:00;96982.44;;;-3.25;100.00
11001;BME280;5553;48.506;8.870;2023-02-28T07:51:29;96983.94;;;-3.21;100.00
11001;BME280;5553;48.506;8.870;2023-02-28T07:53:57;96993.84;;;-3.15;100.00
11001;BME280;5553;48.506;8.870;2023-02-28T07:56:26;96981.34;;;-3.21;100.00
11001;BME280;5553;48.506;8.870;2023-02-28T07:58:54;96977.84;;;-3.20;100.00
11001;BME280;5553;48.506;8.870;2023-02-28T08:01:25;96980.25;;;-3.17;100.00
11001;BME280;5553;48.506;8.870;2023-02-28T08:03:53;96978.94;;;-3.10;100.00
11001;BME280;5553;48.506;8.870;2023-02-28T08:06:23;96973.75;;;-3.10;100.00
11001;BME280;5553;48.506;8.870;2023-02-28T08:08:53;96984.44;;;-3.02;100.00
11001;BME280;5553;48.506;8.870;2023-02-28T08:11:22;96987.38;;;-2.94;100.00
11001;BME280;5553;48.506;8.870;2023-02-28T08:13:50;96982.59;;;-3.00;100.00
11001;BME280;5553;48.506;8.870;2023-02-28T08:16:18;96992.38;;;-3.05;100.00
11001;BME280;5553;48.506;8.870;2023-02-28T08:18:50;96996.13;;;-2.96;100.00
11001;BME280;5553;48.506;8.870;2023-02-28T08:21:20;96997.09;;;-2.84;100.00
11001;BME280;5553;48.506;8.870;2023-02-28T08:23:49;96985.50;;;-2.92;100.00
11001;BME280;5553;48.506;8.870;2023-02-28T08:26:19;96994.00;;;-2.90;100.00
11001;BME280;5553;48.506;8.870;2023-02-28T08:28:47;96999.44;;;-2.80;100.00
11001;BME280;5553;48.506;8.870;2023-02-28T08:31:16;96997.47;;;-2.76;100.00
11001;BME280;5553;48.506;8.870;2023-02-28T08:33:44;96995.34;;;-2.70;100.00
11001;BME280;5553;48.506;8.870;2023-02-28T08:36:16;96984.63;;;-2.78;100.00
11001;BME280;5553;48.506;8.870;2023-02-28T08:38:44;96980.94;;;-2.74;100.00
11001;BME280;5553;48.506;8.870;2023-02-28T08:41:13;96983.38;;;-2.58;100.00
11001;BME280;5553;48.506;8.870;2023-02-28T08:43:41;96984.38;;;-2.73;100.00
11001;BME280;5553;48.506;8.870;2023-02-28T08:46:11;96982.31;;;-2.68;100.00
11001;BME280;5553;48.506;8.870;2023-02-28T08:48:40;96986.44;;;-2.66;100.00
11001;BME280;5553;48.506;8.870;2023-02-28T08:51:11;96982.34;;;-2.55;100.00
11001;BME280;5553;48.506;8.870;2023-02-28T08:53:44;96989.34;;;-2.57;100.00
11001;BME280;5553;48.506;8.870;2023-02-28T08:56:16;96986.28;;;-2.50;100.00
11001;BME280;5553;48.506;8.870;2023-02-28T08:58:45;96986.63;;;-2.42;100.00
11001;BME280;5553;48.506;8.870;2023-02-28T09:01:15;96986.28;;;-2.50;100.00
11001;BME280;5553;48.506;8.870;2023-02-28T09:03:45;96984.75;;;-2.40;100.00
11001;BME280;5553;48.506;8.870;2023-02-28T09:06:15;96996.56;;;-2.35;100.00
11001;BME280;5553;48.506;8.870;2023-02-28T09:08:46;96984.78;;;-2.27;100.00
11001;BME280;5553;48.506;8.870;2023-02-28T09:11:15;96982.31;;;-2.28;100.00
11001;BME280;5553;48.506;8.870;2023-02-28T09:13:44;96984.16;;;-2.30;100.00
11001;BME280;5553;48.506;8.870;2023-02-28T09:16:14;96982.03;;;-2.11;100.00
11001;BME280;5553;48.506;8.870;2023-02-28T09:18:43;96982.13;;;-2.25;100.00
11001;BME280;5553;48.506;8.870;2023-02-28T09:21:13;96978.47;;;-2.23;100.00
11001;BME280;5553;48.506;8.870;2023-02-28T09:23:42;96973.03;;;-2.05;100.00
11001;BME280;5553;48.506;8.870;2023-02-28T09:26:17;96976.03;;;-2.11;100.00
11001;BME280;5553;48.506;8.870;2023-02-28T09:28:46;96986.56;;;-2.02;100.00
11001;BME280;5553;48.506;8.870;2023-02-28T09:31:15;96983.78;;;-1.99;100.00
11001;BME280;5553;48.506;8.870;2023-02-28T09:33:46;96980.50;;;-1.88;100.00
11001;BME280;5553;48.506;8.870;2023-02-28T09:36:14;96977.59;;;-1.83;100.00
11001;BME280;5553;48.506;8.870;2023-02-28T09:38:42;96974.59;;;-1.90;100.00
11001;BME280;5553;48.506;8.870;2023-02-28T09:41:17;96975.63;;;-1.67;100.00
11001;BME280;5553;48.506;8.870;2023-02-28T09:43:50;96966.09;;;-1.79;98.96
11001;BME280;5553;48.506;8.870;2023-02-28T09:46:29;96976.34;;;-1.65;98.71
11001;BME280;5553;48.506;8.870;2023-02-28T09:49:00;96969.00;;;-1.71;98.19
11001;BME280;5553;48.506;8.870;2023-02-28T09:51:36;96958.25;;;-1.91;96.99
11001;BME280;5553;48.506;8.870;2023-02-28T09:54:10;96954.53;;;-1.74;96.68
11001;BME280;5553;48.506;8.870;2023-02-28T09:56:49;96964.56;;;-1.69;96.31
11001;BME280;5553;48.506;8.870;2023-02-28T09:59:42;96967.56;;;-1.62;96.01
11001;BME280;5553;48.506;8.870;2023-02-28T10:02:33;96963.81;;;-1.71;95.61
11001;BME280;5553;48.506;8.870;2023-02-28T10:05:11;96973.66;;;-1.63;95.76
11001;BME280;5553;48.506;8.870;2023-02-28T10:08:02;96966.81;;;-1.52;95.22
11001;BME280;5553;48.506;8.870;2023-02-28T10:10:36;96974.34;;;-1.36;94.67
11001;BME280;5553;48.506;8.870;2023-02-28T10:13:14;96967.00;;;-1.42;93.71
11001;BME280;5553;48.506;8.870;2023-02-28T10:15:46;96961.50;;;-1.37;93.42
11001;BME280;5553;48.506;8.870;2023-02-28T10:18:22;96950.25;;;-1.62;92.71
11001;BME280;5553;48.506;8.870;2023-02-28T10:20:53;96967.94;;;-1.43;92.56
11001;BME280;5553;48.506;8.870;2023-02-28T10:23:25;96966.59;;;-1.49;92.24
11001;BME280;5553;48.506;8.870;2023-02-28T10:25:58;96970.63;;;-1.45;91.80
11001;BME280;5553;48.506;8.870;2023-02-28T10:28:30;96970.22;;;-1.51;91.47
11001;BME280;5553;48.506;8.870;2023-02-28T10:30:59;96971.81;;;-1.12;91.75
11001;BME280;5553;48.506;8.870;2023-02-28T10:33:30;96965.41;;;-1.19;90.84
11001;BME280;5553;48.506;8.870;2023-02-28T10:36:00;96966.47;;;-0.98;90.75
11001;BME280;5553;48.506;8.870;2023-02-28T10:38:33;96959.56;;;-1.10;89.85
11001;BME280;5553;48.506;8.870;2023-02-28T10:41:06;96952.94;;;-1.01;89.47
11001;BME280;5553;48.506;8.870;2023-02-28T10:43:38;96967.38;;;-0.86;89.42
11001;BME280;5553;48.506;8.870;2023-02-28T10:46:13;96965.06;;;-0.78;89.09
11001;BME280;5553;48.506;8.870;2023-02-28T10:49:01;96959.53;;;-0.73;88.22
11001;BME280;5553;48.506;8.870;2023-02-28T10:51:36;96959.88;;;-0.54;88.19
11001;BME280;5553;48.506;8.870;2023-02-28T10:54:04;96956.22;;;-0.27;87.65
11001;BME280;5553;48.506;8.870;2023-02-28T10:56:33;96957.03;;;-0.27;86.79
11001;BME280;5553;48.506;8.870;2023-02-28T10:59:26;96950.22;;;-0.52;86.34
11001;BME280;5553;48.506;8.870;2023-02-28T11:01:55;96951.72;;;-0.25;86.40
11001;BME280;5553;48.506;8.870;2023-02-28T11:04:36;96950.53;;;-0.32;85.56
11001;BME280;5553;48.506;8.870;2023-02-28T11:07:10;96951.41;;;-0.20;85.09
11001;BME280;5553;48.506;8.870;2023-02-28T11:09:46;96939.69;;;-0.26;84.38
11001;BME280;5553;48.506;8.870;2023-02-28T11:12:22;96949.09;;;-0.36;84.34
11001;BME280;5553;48.506;8.870;2023-02-28T11:14:56;96961.44;;;-0.51;84.50
11001;BME280;5553;48.506;8.870;2023-02-28T11:17:27;96945.50;;;-0.58;84.49
11001;BME280;5553;48.506;8.870;2023-02-28T11:19:58;96960.34;;;-0.49;85.03
11001;BME280;5553;48.506;8.870;2023-02-28T11:22:30;96958.06;;;-0.64;84.50
11001;BME280;5553;48.506;8.870;2023-02-28T11:25:03;96966.16;;;-0.10;84.54
11001;BME280;5553;48.506;8.870;2023-02-28T11:27:46;96959.56;;;-0.38;83.93
11001;BME280;5553;48.506;8.870;2023-02-28T11:30:37;96960.97;;;-0.10;83.82
11001;BME280;5553;48.506;8.870;2023-02-28T11:33:23;96967.44;;;-0.04;83.53
11001;BME280;5553;48.506;8.870;2023-02-28T11:35:53;96957.47;;;0.14;83.58
11001;BME280;5553;48.506;8.870;2023-02-28T11:38:25;96955.81;;;0.13;82.61
11001;BME280;5553;48.506;8.870;2023-02-28T11:41:08;96946.47;;;-0.01;82.27
11001;BME280;5553;48.506;8.870;2023-02-28T11:43:50;96953.47;;;0.32;81.92
11001;BME280;5553;48.506;8.870;2023-02-28T11:46:29;96946.72;;;0.75;80.46
11001;BME280;5553;48.506;8.870;2023-02-28T11:49:10;96943.41;;;0.95;80.37
11001;BME280;5553;48.506;8.870;2023-02-28T11:51:48;96931.53;;;0.36;80.63
11001;BME280;5553;48.506;8.870;2023-02-28T11:54:28;96927.72;;;0.74;79.44
11001;BME280;5553;48.506;8.870;2023-02-28T11:57:03;96920.19;;;0.82;78.85
11001;BME280;5553;48.506;8.870;2023-02-28T11:59:54;96923.63;;;0.38;78.86
11001;BME280;5553;48.506;8.870;2023-02-28T12:02:49;96919.72;;;0.32;78.88
11001;BME280;5553;48.506;8.870;2023-02-28T12:05:24;96930.78;;;0.90;78.96
11001;BME280;5553;48.506;8.870;2023-02-28T12:08:06;96924.91;;;0.66;78.10
11001;BME280;5553;48.506;8.870;2023-02-28T12:10:51;96929.63;;;0.83;78.62
11001;BME280;5553;48.506;8.870;2023-02-28T12:13:24;96948.06;;;1.56;79.03
11001;BME280;5553;48.506;8.870;2023-02-28T12:19:09;96910.75;;;2.08;76.15
11001;BME280;5553;48.506;8.870;2023-02-28T12:21:53;96894.09;;;1.69;75.21
11001;BME280;5553;48.506;8.870;2023-02-28T12:24:47;96888.88;;;1.48;74.79
11001;BME280;5553;48.506;8.870;2023-02-28T12:27:23;96887.00;;;1.71;74.42
11001;BME280;5553;48.506;8.870;2023-02-28T12:29:56;96890.19;;;1.42;74.38
11001;BME280;5553;48.506;8.870;2023-02-28T12:32:30;96885.72;;;1.65;74.11
11001;BME280;5553;48.506;8.870;2023-02-28T12:35:11;96894.84;;;1.81;74.72
11001;BME280;5553;48.506;8.870;2023-02-28T12:37:43;96901.13;;;1.78;74.98
11001;BME280;5553;48.506;8.870;2023-02-28T12:40:18;96895.53;;;1.41;75.03
11001;BME280;5553;48.506;8.870;2023-02-28T12:42:50;96903.16;;;1.96;75.28
11001;BME280;5553;48.506;8.870;2023-02-28T12:45:22;96891.78;;;1.97;74.16
11001;BME280;5553;48.506;8.870;2023-02-28T12:47:55;96883.59;;;1.38;73.85
11001;BME280;5553;48.506;8.870;2023-02-28T12:50:29;96878.56;;;1.58;74.01
11001;BME280;5553;48.506;8.870;2023-02-28T12:53:01;96890.09;;;1.86;74.01
11001;BME280;5553;48.506;8.870;2023-02-28T12:55:35;96876.88;;;1.57;73.30
11001;BME280;5553;48.506;8.870;2023-02-28T12:58:12;96902.41;;;2.85;73.34
11001;BME280;5553;48.506;8.870;2023-02-28T13:00:55;96880.78;;;3.63;70.70
11001;BME280;5553;48.506;8.870;2023-02-28T13:06:45;96864.28;;;3.72;70.15
11001;BME280;5553;48.506;8.870;2023-02-28T13:09:20;96838.63;;;3.48;67.97
11001;BME280;5553;48.506;8.870;2023-02-28T13:11:50;96859.41;;;4.89;67.51
11001;BME280;5553;48.506;8.870;2023-02-28T13:14:23;96829.53;;;5.09;64.65
11001;BME280;5553;48.506;8.870;2023-02-28T13:16:59;96814.38;;;4.95;63.71
11001;BME280;5553;48.506;8.870;2023-02-28T13:19:30;96826.19;;;5.35;63.79
11001;BME280;5553;48.506;8.870;2023-02-28T13:22:16;96818.06;;;5.90;61.52
11001;BME280;5553;48.506;8.870;2023-02-28T13:24:48;96794.59;;;4.19;62.96
11001;BME280;5553;48.506;8.870;2023-02-28T13:27:35;96816.06;;;5.40;62.05
11001;BME280;5553;48.506;8.870;2023-02-28T13:33:21;96791.09;;;4.38;62.00
11001;BME280;5553;48.506;8.870;2023-02-28T13:36:07;96806.16;;;5.08;61.78
11001;BME280;5553;48.506;8.870;2023-02-28T13:38:43;96804.56;;;5.33;60.86
11001;BME280;5553;48.506;8.870;2023-02-28T13:44:18;96806.91;;;6.06;59.52
11001;BME280;5553;48.506;8.870;2023-02-28T13:47:16;96766.34;;;4.96;58.13
11001;BME280;5553;48.506;8.870;2023-02-28T13:49:47;96812.75;;;5.12;60.37
11001;BME280;5553;48.506;8.870;2023-02-28T13:52:18;96798.81;;;5.29;59.36